sensor_id;sensor_type;location;lat;lon;timestamp;temperature;humidity
69533;DHT22;56729;52.036;5.332;2022-12-29T00:00:28;11.60;99.90
69533;DHT22;56729;52.036;5.332;2022-12-29T00:01:32;11.70;99.90
69533;DHT22;56729;52.036;5.332;2022-12-29T00:02:34;11.70;99.90
69533;DHT22;56729;52.036;5.332;2022-12-29T00:03:36;11.70;99.90
69533;DHT22;56729;52.036;5.332;2022-12-29T00:04:38;11.70;99.90
69533;DHT22;56729;52.036;5.332;2022-12-29T00:05:40;11.70;99.90
69533;DHT22;56729;52.036;5.332;2022-12-29T00:06:43;11.70;99.90
69533;DHT22;56729;52.036;5.332;2022-12-29T00:07:45;11.70;99.90
69533;DHT22;56729;52.036;5.332;2022-12-29T00:08:47;11.70;99.90
69533;DHT22;56729;52.036;5.332;2022-12-29T00:09:49;11.70;99.90
69533;DHT22;56729;52.036;5.332;2022-12-29T00:10:51;11.80;99.90
69533;DHT22;56729;52.036;5.332;2022-12-29T00:11:53;11.80;99.90
69533;DHT22;56729;52.036;5.332;2022-12-29T00:12:54;11.80;99.90
69533;DHT22;56729;52.036;5.332;2022-12-29T00:14:15;11.80;99.90
69533;DHT22;56729;52.036;5.332;2022-12-29T00:15:36;11.80;99.90
69533;DHT22;56729;52.036;5.332;2022-12-29T00:16:43;11.80;99.90
69533;DHT22;56729;52.036;5.332;2022-12-29T00:17:45;11.80;99.90
69533;DHT22;56729;52.036;5.332;2022-12-29T00:18:47;11.80;99.90
69533;DHT22;56729;52.036;5.332;2022-12-29T00:19:49;11.80;99.90
69533;DHT22;56729;52.036;5.332;2022-12-29T00:21:14;11.80;99.90
69533;DHT22;56729;52.036;5.332;2022-12-29T00:22:34;11.80;99.90
69533;DHT22;56729;52.036;5.332;2022-12-29T00:23:55;11.80;99.90
69533;DHT22;56729;52.036;5.332;2022-12-29T00:25:16;11.80;99.90
69533;DHT22;56729;52.036;5.332;2022-12-29T00:26:37;11.80;99.90
69533;DHT22;56729;52.036;5.332;2022-12-29T00:27:58;11.80;99.90
69533;DHT22;56729;52.036;5.332;2022-12-29T00:29:18;11.80;99.90
69533;DHT22;56729;52.036;5.332;2022-12-29T00:30:39;11.80;99.90
69533;DHT22;56729;52.036;5.332;2022-12-29T00:31:59;11.70;99.90
69533;DHT22;56729;52.036;5.332;2022-12-29T00:33:22;11.70;99.90
69533;DHT22;56729;52.036;5.332;2022-12-29T00:34:46;11.80;99.90
69533;DHT22;56729;52.036;5.332;2022-12-29T00:36:11;11.80;99.90
69533;DHT22;56729;52.036;5.332;2022-12-29T00:37:15;11.80;99.90
69533;DHT22;56729;52.036;5.332;2022-12-29T00:38:17;11.80;99.90
69533;DHT22;56729;52.036;5.332;2022-12-29T00:39:38;11.80;99.90
69533;DHT22;56729;52.036;5.332;2022-12-29T00:40:59;11.80;99.90
69533;DHT22;56729;52.036;5.332;2022-12-29T00:42:20;11.80;99.90
69533;DHT22;56729;52.036;5.332;2022-12-29T00:43:40;11.80;99.90
69533;DHT22;56729;52.036;5.332;2022-12-29T00:45:01;11.80;99.90
69533;DHT22;56729;52.036;5.332;2022-12-29T00:46:03;11.80;99.90
69533;DHT22;56729;52.036;5.332;2022-12-29T00:47:06;11.80;99.90
69533;DHT22;56729;52.036;5.332;2022-12-29T00:48:08;11.80;99.90
69533;DHT22;56729;52.036;5.332;2022-12-29T00:49:11;11.80;99.90
69533;DHT22;56729;52.036;5.332;2022-12-29T00:50:32;11.80;99.90
69533;DHT22;56729;52.036;5.332;2022-12-29T00:51:34;11.80;99.90
69533;DHT22;56729;52.036;5.332;2022-12-29T00:52:36;11.80;99.90
69533;DHT22;56729;52.036;5.332;2022-12-29T00:53:38;11.80;99.90
69533;DHT22;56729;52.036;5.332;2022-12-29T00:54:41;11.80;99.90
69533;DHT22;56729;52.036;5.332;2022-12-29T00:55:46;11.80;99.90
69533;DHT22;56729;52.036;5.332;2022-12-29T00:56:49;11.70;99.90
69533;DHT22;56729;52.036;5.332;2022-12-29T00:57:52;11.80;99.90
69533;DHT22;56729;52.036;5.332;2022-12-29T00:58:54;11.80;99.90
69533;DHT22;56729;52.036;5.332;2022-12-29T00:59:57;11.70;99.90
69533;DHT22;56729;52.036;5.332;2022-12-29T01:01:06;11.80;99.90
69533;DHT22;56729;52.036;5.332;2022-12-29T01:02:09;11.80;99.90
69533;DHT22;56729;52.036;5.332;2022-12-29T01:03:12;11.80;99.90
69533;DHT22;56729;52.036;5.332;2022-12-29T01:04:14;11.80;99.90
69533;DHT22;56729;52.036;5.332;2022-12-29T01:05:18;11.80;99.90
69533;DHT22;56729;52.036;5.332;2022-12-29T01:06:20;11.80;99.90
69533;DHT22;56729;52.036;5.332;2022-12-29T01:07:22;11.80;99.90
69533;DHT22;56729;52.036;5.332;2022-12-29T01:08:24;11.80;99.90
69533;DHT22;56729;52.036;5.332;2022-12-29T01:09:26;11.80;99.90
69533;DHT22;56729;52.036;5.332;2022-12-29T01:10:46;11.80;99.90
69533;DHT22;56729;52.036;5.332;2022-12-29T01:11:59;11.70;99.90
69533;DHT22;56729;52.036;5.332;2022-12-29T01:13:02;11.70;99.90
69533;DHT22;56729;52.036;5.332;2022-12-29T01:14:08;11.70;99.90
69533;DHT22;56729;52.036;5.332;2022-12-29T01:15:12;11.70;99.90
69533;DHT22;56729;52.036;5.332;2022-12-29T01:16:15;11.60;99.90
69533;DHT22;56729;52.036;5.332;2022-12-29T01:17:18;11.60;99.90
69533;DHT22;56729;52.036;5.332;2022-12-29T01:18:21;11.50;99.90
69533;DHT22;56729;52.036;5.332;2022-12-29T01:19:24;11.50;99.90
69533;DHT22;56729;52.036;5.332;2022-12-29T01:20:27;11.40;99.90
69533;DHT22;56729;52.036;5.332;2022-12-29T01:21:31;11.40;99.90
69533;DHT22;56729;52.036;5.332;2022-12-29T01:22:34;11.30;99.90
69533;DHT22;56729;52.036;5.332;2022-12-29T01:23:36;11.30;99.90
69533;DHT22;56729;52.036;5.332;2022-12-29T01:24:40;11.20;99.90
69533;DHT22;56729;52.036;5.332;2022-12-29T01:25:42;11.20;99.90
69533;DHT22;56729;52.036;5.332;2022-12-29T01:26:45;11.20;99.90
69533;DHT22;56729;52.036;5.332;2022-12-29T01:27:47;11.10;99.90
69533;DHT22;56729;52.036;5.332;2022-12-29T01:28:49;11.10;99.90
69533;DHT22;56729;52.036;5.332;2022-12-29T01:29:51;11.10;99.90
69533;DHT22;56729;52.036;5.332;2022-12-29T01:30:54;11.10;99.90
69533;DHT22;56729;52.036;5.332;2022-12-29T01:31:57;11.00;99.90
69533;DHT22;56729;52.036;5.332;2022-12-29T01:32:59;11.00;99.90
69533;DHT22;56729;52.036;5.332;2022-12-29T01:34:01;11.00;99.90
69533;DHT22;56729;52.036;5.332;2022-12-29T01:35:03;11.00;99.90
69533;DHT22;56729;52.036;5.332;2022-12-29T01:36:18;11.00;99.90
69533;DHT22;56729;52.036;5.332;2022-12-29T01:37:20;11.00;99.90
69533;DHT22;56729;52.036;5.332;2022-12-29T01:38:21;11.00;99.90
69533;DHT22;56729;52.036;5.332;2022-12-29T01:39:23;11.00;99.90
69533;DHT22;56729;52.036;5.332;2022-12-29T01:40:25;10.90;99.90
69533;DHT22;56729;52.036;5.332;2022-12-29T01:41:53;11.00;99.90
69533;DHT22;56729;52.036;5.332;2022-12-29T01:42:55;10.90;99.90
69533;DHT22;56729;52.036;5.332;2022-12-29T01:43:58;10.90;99.90
69533;DHT22;56729;52.036;5.332;2022-12-29T01:45:09;10.90;99.90
69533;DHT22;56729;52.036;5.332;2022-12-29T01:46:39;10.90;99.90
69533;DHT22;56729;52.036;5.332;2022-12-29T01:49:18;10.90;99.90
69533;DHT22;56729;52.036;5.332;2022-12-29T01:50:42;10.90;99.90
69533;DHT22;56729;52.036;5.332;2022-12-29T01:52:04;10.90;99.90
69533;DHT22;56729;52.036;5.332;2022-12-29T01:53:11;10.90;99.90
69533;DHT22;56729;52.036;5.332;2022-12-29T01:54:26;10.90;99.90
69533;DHT22;56729;52.036;5.332;2022-12-29T01:55:33;10.90;99.90
69533;DHT22;56729;52.036;5.332;2022-12-29T01:56:36;10.90;99.90
69533;DHT22;56729;52.036;5.332;2022-12-29T01:57:40;10.90;99.90
69533;DHT22;56729;52.036;5.332;2022-12-29T01:58:48;10.90;99.90
69533;DHT22;56729;52.036;5.332;2022-12-29T01:59:57;10.90;99.90
69533;DHT22;56729;52.036;5.332;2022-12-29T02:01:00;10.90;99.90
69533;DHT22;56729;52.036;5.332;2022-12-29T02:02:04;10.90;99.90
69533;DHT22;56729;52.036;5.332;2022-12-29T02:03:06;10.90;99.90
69533;DHT22;56729;52.036;5.332;2022-12-29T02:04:11;10.90;99.90
69533;DHT22;56729;52.036;5.332;2022-12-29T02:05:23;10.90;99.90
69533;DHT22;56729;52.036;5.332;2022-12-29T02:06:33;10.90;99.90
69533;DHT22;56729;52.036;5.332;2022-12-29T02:07:37;10.90;99.90
69533;DHT22;56729;52.036;5.332;2022-12-29T02:08:40;10.90;99.90
69533;DHT22;56729;52.036;5.332;2022-12-29T02:09:42;10.90;99.90
69533;DHT22;56729;52.036;5.332;2022-12-29T02:10:45;10.90;99.90
69533;DHT22;56729;52.036;5.332;2022-12-29T02:11:47;10.90;99.90
69533;DHT22;56729;52.036;5.332;2022-12-29T02:12:52;10.90;99.90
69533;DHT22;56729;52.036;5.332;2022-12-29T02:13:55;10.90;99.90
69533;DHT22;56729;52.036;5.332;2022-12-29T02:15:00;10.90;99.90
69533;DHT22;56729;52.036;5.332;2022-12-29T02:17:53;10.90;99.90
69533;DHT22;56729;52.036;5.332;2022-12-29T02:25:34;10.80;99.90
69533;DHT22;56729;52.036;5.332;2022-12-29T02:27:08;10.90;99.90
69533;DHT22;56729;52.036;5.332;2022-12-29T02:32:46;10.90;99.90
69533;DHT22;56729;52.036;5.332;2022-12-29T02:39:25;10.90;99.90
69533;DHT22;56729;52.036;5.332;2022-12-29T02:40:48;10.90;99.90
69533;DHT22;56729;52.036;5.332;2022-12-29T02:42:23;11.00;99.90
69533;DHT22;56729;52.036;5.332;2022-12-29T02:45:03;11.00;99.90
69533;DHT22;56729;52.036;5.332;2022-12-29T02:46:21;11.00;99.90
69533;DHT22;56729;52.036;5.332;2022-12-29T02:49:18;11.10;99.90
69533;DHT22;56729;52.036;5.332;2022-12-29T02:50:40;11.10;99.90
69533;DHT22;56729;52.036;5.332;2022-12-29T02:52:02;11.10;99.90
69533;DHT22;56729;52.036;5.332;2022-12-29T02:53:09;11.10;99.90
69533;DHT22;56729;52.036;5.332;2022-12-29T02:54:12;11.10;99.90
69533;DHT22;56729;52.036;5.332;2022-12-29T02:55:33;11.10;99.90
69533;DHT22;56729;52.036;5.332;2022-12-29T02:56:35;11.10;99.90
69533;DHT22;56729;52.036;5.332;2022-12-29T02:57:37;11.10;99.90
69533;DHT22;56729;52.036;5.332;2022-12-29T02:58:40;11.10;99.90
69533;DHT22;56729;52.036;5.332;2022-12-29T02:59:43;11.10;99.90
69533;DHT22;56729;52.036;5.332;2022-12-29T03:00:51;11.10;99.90
69533;DHT22;56729;52.036;5.332;2022-12-29T03:02:19;11.10;99.90
69533;DHT22;56729;52.036;5.332;2022-12-29T03:07:54;11.00;99.90
69533;DHT22;56729;52.036;5.332;2022-12-29T03:12:26;11.00;99.90
69533;DHT22;56729;52.036;5.332;2022-12-29T03:13:52;11.00;99.90
69533;DHT22;56729;52.036;5.332;2022-12-29T03:15:25;11.00;99.90
69533;DHT22;56729;52.036;5.332;2022-12-29T03:16:58;11.00;99.90
69533;DHT22;56729;52.036;5.332;2022-12-29T03:18:05;11.00;99.90
69533;DHT22;56729;52.036;5.332;2022-12-29T03:19:15;11.00;99.90
69533;DHT22;56729;52.036;5.332;2022-12-29T03:20:24;11.00;99.90
69533;DHT22;56729;52.036;5.332;2022-12-29T03:21:37;11.00;99.90
69533;DHT22;56729;52.036;5.332;2022-12-29T03:23:01;11.00;99.90
69533;DHT22;56729;52.036;5.332;2022-12-29T03:24:08;11.00;99.90
69533;DHT22;56729;52.036;5.332;2022-12-29T03:25:24;11.00;99.90
69533;DHT22;56729;52.036;5.332;2022-12-29T03:26:27;11.00;99.90
69533;DHT22;56729;52.036;5.332;2022-12-29T03:27:33;11.00;99.90
69533;DHT22;56729;52.036;5.332;2022-12-29T03:28:39;11.00;99.90
69533;DHT22;56729;52.036;5.332;2022-12-29T03:29:47;11.00;99.90
69533;DHT22;56729;52.036;5.332;2022-12-29T03:30:55;11.00;99.90
69533;DHT22;56729;52.036;5.332;2022-12-29T03:32:10;11.00;99.90
69533;DHT22;56729;52.036;5.332;2022-12-29T03:33:17;11.00;99.90
69533;DHT22;56729;52.036;5.332;2022-12-29T03:34:22;11.00;99.90
69533;DHT22;56729;52.036;5.332;2022-12-29T03:35:29;11.00;99.90
69533;DHT22;56729;52.036;5.332;2022-12-29T03:36:40;11.00;99.90
69533;DHT22;56729;52.036;5.332;2022-12-29T03:37:52;11.00;99.90
69533;DHT22;56729;52.036;5.332;2022-12-29T03:39:04;11.00;99.90
69533;DHT22;56729;52.036;5.332;2022-12-29T03:40:08;10.90;99.90
69533;DHT22;56729;52.036;5.332;2022-12-29T03:41:15;10.90;99.90
69533;DHT22;56729;52.036;5.332;2022-12-29T03:42:21;10.90;99.90
69533;DHT22;56729;52.036;5.332;2022-12-29T03:43:26;10.90;99.90
69533;DHT22;56729;52.036;5.332;2022-12-29T03:44:36;10.90;99.90
69533;DHT22;56729;52.036;5.332;2022-12-29T03:45:38;10.90;99.90
69533;DHT22;56729;52.036;5.332;2022-12-29T03:46:41;10.90;99.90
69533;DHT22;56729;52.036;5.332;2022-12-29T03:47:45;10.90;99.90
69533;DHT22;56729;52.036;5.332;2022-12-29T03:48:47;10.90;99.90
69533;DHT22;56729;52.036;5.332;2022-12-29T03:49:49;10.90;99.90
69533;DHT22;56729;52.036;5.332;2022-12-29T03:50:51;10.90;99.90
69533;DHT22;56729;52.036;5.332;2022-12-29T03:51:54;10.80;99.90
69533;DHT22;56729;52.036;5.332;2022-12-29T03:52:57;10.80;99.90
69533;DHT22;56729;52.036;5.332;2022-12-29T03:53:59;10.80;99.90
69533;DHT22;56729;52.036;5.332;2022-12-29T03:55:01;10.80;99.90
69533;DHT22;56729;52.036;5.332;2022-12-29T03:56:04;10.80;99.90
69533;DHT22;56729;52.036;5.332;2022-12-29T03:57:08;10.80;99.90
69533;DHT22;56729;52.036;5.332;2022-12-29T03:58:24;10.80;99.90
69533;DHT22;56729;52.036;5.332;2022-12-29T03:59:49;10.80;99.90
69533;DHT22;56729;52.036;5.332;2022-12-29T04:00:51;10.80;99.90
69533;DHT22;56729;52.036;5.332;2022-12-29T04:01:53;10.80;99.90
69533;DHT22;56729;52.036;5.332;2022-12-29T04:02:55;10.80;99.90
69533;DHT22;56729;52.036;5.332;2022-12-29T04:03:58;10.80;99.90
69533;DHT22;56729;52.036;5.332;2022-12-29T04:05:00;10.70;99.90
69533;DHT22;56729;52.036;5.332;2022-12-29T04:06:02;10.80;99.90
69533;DHT22;56729;52.036;5.332;2022-12-29T04:07:12;10.70;99.90
69533;DHT22;56729;52.036;5.332;2022-12-29T04:08:15;10.80;99.90
69533;DHT22;56729;52.036;5.332;2022-12-29T04:09:17;10.80;99.90
69533;DHT22;56729;52.036;5.332;2022-12-29T04:10:22;10.80;99.90
69533;DHT22;56729;52.036;5.332;2022-12-29T04:11:27;10.80;99.90
69533;DHT22;56729;52.036;5.332;2022-12-29T04:12:34;10.80;99.90
69533;DHT22;56729;52.036;5.332;2022-12-29T04:13:36;10.80;99.90
69533;DHT22;56729;52.036;5.332;2022-12-29T04:14:44;10.80;99.90
69533;DHT22;56729;52.036;5.332;2022-12-29T04:15:46;10.80;99.90
69533;DHT22;56729;52.036;5.332;2022-12-29T04:16:48;10.80;99.90
69533;DHT22;56729;52.036;5.332;2022-12-29T04:17:51;10.80;99.90
69533;DHT22;56729;52.036;5.332;2022-12-29T04:18:53;10.80;99.90
69533;DHT22;56729;52.036;5.332;2022-12-29T04:19:55;10.90;99.90
69533;DHT22;56729;52.036;5.332;2022-12-29T04:21:17;10.90;99.90
69533;DHT22;56729;52.036;5.332;2022-12-29T04:22:19;10.90;99.90
69533;DHT22;56729;52.036;5.332;2022-12-29T04:23:21;10.90;99.90
69533;DHT22;56729;52.036;5.332;2022-12-29T04:24:23;10.90;99.90
69533;DHT22;56729;52.036;5.332;2022-12-29T04:25:25;10.90;99.90
69533;DHT22;56729;52.036;5.332;2022-12-29T04:26:27;10.90;99.90
69533;DHT22;56729;52.036;5.332;2022-12-29T04:27:49;10.90;99.90
69533;DHT22;56729;52.036;5.332;2022-12-29T04:29:09;11.00;99.90
69533;DHT22;56729;52.036;5.332;2022-12-29T04:30:22;10.90;99.90
69533;DHT22;56729;52.036;5.332;2022-12-29T04:31:39;11.00;99.90
69533;DHT22;56729;52.036;5.332;2022-12-29T04:32:41;11.00;99.90
69533;DHT22;56729;52.036;5.332;2022-12-29T04:33:43;11.00;99.90
69533;DHT22;56729;52.036;5.332;2022-12-29T04:34:45;11.00;99.90
69533;DHT22;56729;52.036;5.332;2022-12-29T04:35:47;10.90;99.90
69533;DHT22;56729;52.036;5.332;2022-12-29T04:36:49;10.90;99.90
69533;DHT22;56729;52.036;5.332;2022-12-29T04:37:52;10.90;99.90
69533;DHT22;56729;52.036;5.332;2022-12-29T04:38:54;10.90;99.90
69533;DHT22;56729;52.036;5.332;2022-12-29T04:39:56;10.90;99.90
69533;DHT22;56729;52.036;5.332;2022-12-29T04:41:01;10.90;99.90
69533;DHT22;56729;52.036;5.332;2022-12-29T04:42:03;10.90;99.90
69533;DHT22;56729;52.036;5.332;2022-12-29T04:43:07;10.90;99.90
69533;DHT22;56729;52.036;5.332;2022-12-29T04:44:16;10.90;99.90
69533;DHT22;56729;52.036;5.332;2022-12-29T04:45:37;10.90;99.90
69533;DHT22;56729;52.036;5.332;2022-12-29T04:46:50;10.90;99.90
69533;DHT22;56729;52.036;5.332;2022-12-29T04:48:04;10.90;99.90
69533;DHT22;56729;52.036;5.332;2022-12-29T04:49:19;10.90;99.90
69533;DHT22;56729;52.036;5.332;2022-12-29T04:50:48;10.90;99.90
69533;DHT22;56729;52.036;5.332;2022-12-29T04:51:52;10.90;99.90
69533;DHT22;56729;52.036;5.332;2022-12-29T04:52:54;10.90;99.90
69533;DHT22;56729;52.036;5.332;2022-12-29T04:53:56;10.80;99.90
69533;DHT22;56729;52.036;5.332;2022-12-29T04:54:59;10.80;99.90
69533;DHT22;56729;52.036;5.332;2022-12-29T04:56:01;10.80;99.90
69533;DHT22;56729;52.036;5.332;2022-12-29T04:57:03;10.80;99.90
69533;DHT22;56729;52.036;5.332;2022-12-29T04:58:05;10.80;99.90
69533;DHT22;56729;52.036;5.332;2022-12-29T04:59:08;10.80;99.90
69533;DHT22;56729;52.036;5.332;2022-12-29T05:00:10;10.80;99.90
69533;DHT22;56729;52.036;5.332;2022-12-29T05:01:12;10.80;99.90
69533;DHT22;56729;52.036;5.332;2022-12-29T05:02:15;10.80;99.90
69533;DHT22;56729;52.036;5.332;2022-12-29T05:03:20;10.80;99.90
69533;DHT22;56729;52.036;5.332;2022-12-29T05:04:23;10.80;99.90
69533;DHT22;56729;52.036;5.332;2022-12-29T05:05:24;10.80;99.90
69533;DHT22;56729;52.036;5.332;2022-12-29T05:06:26;10.80;99.90
69533;DHT22;56729;52.036;5.332;2022-12-29T05:07:29;10.80;99.90
69533;DHT22;56729;52.036;5.332;2022-12-29T05:08:31;10.80;99.90
69533;DHT22;56729;52.036;5.332;2022-12-29T05:09:35;10.80;99.90
69533;DHT22;56729;52.036;5.332;2022-12-29T05:10:36;10.80;99.90
69533;DHT22;56729;52.036;5.332;2022-12-29T05:11:44;10.80;99.90
69533;DHT22;56729;52.036;5.332;2022-12-29T05:12:46;10.80;99.90
69533;DHT22;56729;52.036;5.332;2022-12-29T05:13:49;10.80;99.90
69533;DHT22;56729;52.036;5.332;2022-12-29T05:14:52;10.80;99.90
69533;DHT22;56729;52.036;5.332;2022-12-29T05:15:54;10.80;99.90
69533;DHT22;56729;52.036;5.332;2022-12-29T05:16:57;10.80;99.90
69533;DHT22;56729;52.036;5.332;2022-12-29T05:18:00;10.80;99.90
69533;DHT22;56729;52.036;5.332;2022-12-29T05:19:02;10.80;99.90
69533;DHT22;56729;52.036;5.332;2022-12-29T05:20:07;10.80;99.90
69533;DHT22;56729;52.036;5.332;2022-12-29T05:21:09;10.80;99.90
69533;DHT22;56729;52.036;5.332;2022-12-29T05:22:13;10.80;99.90
69533;DHT22;56729;52.036;5.332;2022-12-29T05:23:17;10.80;99.90
69533;DHT22;56729;52.036;5.332;2022-12-29T05:24:25;10.80;99.90
69533;DHT22;56729;52.036;5.332;2022-12-29T05:25:29;10.70;99.90
69533;DHT22;56729;52.036;5.332;2022-12-29T05:26:45;10.70;99.90
69533;DHT22;56729;52.036;5.332;2022-12-29T05:28:08;10.70;99.90
69533;DHT22;56729;52.036;5.332;2022-12-29T05:29:17;10.70;99.90
69533;DHT22;56729;52.036;5.332;2022-12-29T05:30:19;10.60;99.90
69533;DHT22;56729;52.036;5.332;2022-12-29T05:31:21;10.70;99.90
69533;DHT22;56729;52.036;5.332;2022-12-29T05:32:23;10.60;99.90
69533;DHT22;56729;52.036;5.332;2022-12-29T05:33:27;10.70;99.90
69533;DHT22;56729;52.036;5.332;2022-12-29T05:34:29;10.70;99.90
69533;DHT22;56729;52.036;5.332;2022-12-29T05:35:32;10.70;99.90
69533;DHT22;56729;52.036;5.332;2022-12-29T05:36:33;10.70;99.90
69533;DHT22;56729;52.036;5.332;2022-12-29T05:37:39;10.70;99.90
69533;DHT22;56729;52.036;5.332;2022-12-29T05:38:42;10.70;99.90
69533;DHT22;56729;52.036;5.332;2022-12-29T05:39:44;10.70;99.90
69533;DHT22;56729;52.036;5.332;2022-12-29T05:40:47;10.70;99.90
69533;DHT22;56729;52.036;5.332;2022-12-29T05:42:11;10.70;99.90
69533;DHT22;56729;52.036;5.332;2022-12-29T05:43:36;10.70;99.90
69533;DHT22;56729;52.036;5.332;2022-12-29T05:44:48;10.70;99.90
69533;DHT22;56729;52.036;5.332;2022-12-29T05:46:25;10.70;99.90
69533;DHT22;56729;52.036;5.332;2022-12-29T05:47:38;10.70;99.90
69533;DHT22;56729;52.036;5.332;2022-12-29T05:49:06;10.70;99.90
69533;DHT22;56729;52.036;5.332;2022-12-29T05:50:25;10.70;99.90
69533;DHT22;56729;52.036;5.332;2022-12-29T05:51:42;10.70;99.90
69533;DHT22;56729;52.036;5.332;2022-12-29T05:52:44;10.70;99.90
69533;DHT22;56729;52.036;5.332;2022-12-29T05:53:46;10.70;99.90
69533;DHT22;56729;52.036;5.332;2022-12-29T05:54:49;10.70;99.90
69533;DHT22;56729;52.036;5.332;2022-12-29T05:55:54;10.70;99.90
69533;DHT22;56729;52.036;5.332;2022-12-29T05:56:56;10.70;99.90
69533;DHT22;56729;52.036;5.332;2022-12-29T05:57:58;10.70;99.90
69533;DHT22;56729;52.036;5.332;2022-12-29T05:59:08;10.70;99.90
69533;DHT22;56729;52.036;5.332;2022-12-29T06:00:11;10.70;99.90
69533;DHT22;56729;52.036;5.332;2022-12-29T06:01:15;10.70;99.90
69533;DHT22;56729;52.036;5.332;2022-12-29T06:02:20;10.70;99.90
69533;DHT22;56729;52.036;5.332;2022-12-29T06:03:22;10.70;99.90
69533;DHT22;56729;52.036;5.332;2022-12-29T06:04:25;10.80;99.90
69533;DHT22;56729;52.036;5.332;2022-12-29T06:05:27;10.80;99.90
69533;DHT22;56729;52.036;5.332;2022-12-29T06:06:29;10.80;99.90
69533;DHT22;56729;52.036;5.332;2022-12-29T06:07:31;10.80;99.90
69533;DHT22;56729;52.036;5.332;2022-12-29T06:08:34;10.80;99.90
69533;DHT22;56729;52.036;5.332;2022-12-29T06:09:35;10.80;99.90
69533;DHT22;56729;52.036;5.332;2022-12-29T06:10:38;10.80;99.90
69533;DHT22;56729;52.036;5.332;2022-12-29T06:11:42;10.80;99.90
69533;DHT22;56729;52.036;5.332;2022-12-29T06:12:44;10.80;99.90
69533;DHT22;56729;52.036;5.332;2022-12-29T06:13:46;10.80;99.90
69533;DHT22;56729;52.036;5.332;2022-12-29T06:14:48;10.90;99.90
69533;DHT22;56729;52.036;5.332;2022-12-29T06:15:50;10.80;99.90
69533;DHT22;56729;52.036;5.332;2022-12-29T06:16:53;10.80;99.90
69533;DHT22;56729;52.036;5.332;2022-12-29T06:17:56;10.80;99.90
69533;DHT22;56729;52.036;5.332;2022-12-29T06:18:58;10.90;99.90
69533;DHT22;56729;52.036;5.332;2022-12-29T06:19:59;10.90;99.90
69533;DHT22;56729;52.036;5.332;2022-12-29T06:21:03;10.90;99.90
69533;DHT22;56729;52.036;5.332;2022-12-29T06:22:05;10.90;99.90
69533;DHT22;56729;52.036;5.332;2022-12-29T06:23:09;10.90;99.90
69533;DHT22;56729;52.036;5.332;2022-12-29T06:24:13;10.90;99.90
69533;DHT22;56729;52.036;5.332;2022-12-29T06:25:16;10.90;99.90
69533;DHT22;56729;52.036;5.332;2022-12-29T06:26:18;11.00;99.90
69533;DHT22;56729;52.036;5.332;2022-12-29T06:27:22;10.90;99.90
69533;DHT22;56729;52.036;5.332;2022-12-29T06:28:26;10.90;99.90
69533;DHT22;56729;52.036;5.332;2022-12-29T06:29:28;10.90;99.90
69533;DHT22;56729;52.036;5.332;2022-12-29T06:30:32;10.90;99.90
69533;DHT22;56729;52.036;5.332;2022-12-29T06:31:35;10.90;99.90
69533;DHT22;56729;52.036;5.332;2022-12-29T06:32:38;10.80;99.90
69533;DHT22;56729;52.036;5.332;2022-12-29T06:33:43;10.80;99.90
69533;DHT22;56729;52.036;5.332;2022-12-29T06:34:50;10.80;99.90
69533;DHT22;56729;52.036;5.332;2022-12-29T06:35:52;10.70;99.90
69533;DHT22;56729;52.036;5.332;2022-12-29T06:36:53;10.70;99.90
69533;DHT22;56729;52.036;5.332;2022-12-29T06:37:55;10.70;99.90
69533;DHT22;56729;52.036;5.332;2022-12-29T06:38:58;10.70;99.90
69533;DHT22;56729;52.036;5.332;2022-12-29T06:40:00;10.60;99.90
69533;DHT22;56729;52.036;5.332;2022-12-29T06:41:11;10.60;99.90
69533;DHT22;56729;52.036;5.332;2022-12-29T06:42:32;10.60;99.90
69533;DHT22;56729;52.036;5.332;2022-12-29T06:44:01;10.60;99.90
69533;DHT22;56729;52.036;5.332;2022-12-29T06:45:11;10.60;99.90
69533;DHT22;56729;52.036;5.332;2022-12-29T06:46:12;10.60;99.90
69533;DHT22;56729;52.036;5.332;2022-12-29T06:47:14;10.60;99.90
69533;DHT22;56729;52.036;5.332;2022-12-29T06:48:16;10.60;99.90
69533;DHT22;56729;52.036;5.332;2022-12-29T06:49:18;10.60;99.90
69533;DHT22;56729;52.036;5.332;2022-12-29T06:50:20;10.60;99.90
69533;DHT22;56729;52.036;5.332;2022-12-29T06:51:22;10.60;99.90
69533;DHT22;56729;52.036;5.332;2022-12-29T06:52:24;10.60;99.90
69533;DHT22;56729;52.036;5.332;2022-12-29T06:53:26;10.60;99.90
69533;DHT22;56729;52.036;5.332;2022-12-29T06:54:28;10.60;99.90
69533;DHT22;56729;52.036;5.332;2022-12-29T06:55:30;10.60;99.90
69533;DHT22;56729;52.036;5.332;2022-12-29T06:56:32;10.50;99.90
69533;DHT22;56729;52.036;5.332;2022-12-29T06:57:34;10.50;99.90
69533;DHT22;56729;52.036;5.332;2022-12-29T06:58:36;10.40;99.90
69533;DHT22;56729;52.036;5.332;2022-12-29T06:59:38;10.40;99.90
69533;DHT22;56729;52.036;5.332;2022-12-29T07:00:40;10.30;99.90
69533;DHT22;56729;52.036;5.332;2022-12-29T07:01:41;10.20;99.90
69533;DHT22;56729;52.036;5.332;2022-12-29T07:02:43;10.20;99.90
69533;DHT22;56729;52.036;5.332;2022-12-29T07:03:46;10.10;99.90
69533;DHT22;56729;52.036;5.332;2022-12-29T07:04:48;10.10;99.90
69533;DHT22;56729;52.036;5.332;2022-12-29T07:05:49;10.00;99.90
69533;DHT22;56729;52.036;5.332;2022-12-29T07:06:51;9.90;99.90
69533;DHT22;56729;52.036;5.332;2022-12-29T07:07:54;9.90;99.90
69533;DHT22;56729;52.036;5.332;2022-12-29T07:08:56;9.90;99.90
69533;DHT22;56729;52.036;5.332;2022-12-29T07:09:59;9.80;99.90
69533;DHT22;56729;52.036;5.332;2022-12-29T07:11:00;9.80;99.90
69533;DHT22;56729;52.036;5.332;2022-12-29T07:12:03;9.70;99.90
69533;DHT22;56729;52.036;5.332;2022-12-29T07:13:05;9.70;99.90
69533;DHT22;56729;52.036;5.332;2022-12-29T07:14:10;9.70;99.90
69533;DHT22;56729;52.036;5.332;2022-12-29T07:15:12;9.60;99.90
69533;DHT22;56729;52.036;5.332;2022-12-29T07:16:15;9.50;99.90
69533;DHT22;56729;52.036;5.332;2022-12-29T07:17:17;9.50;99.90
69533;DHT22;56729;52.036;5.332;2022-12-29T07:18:19;9.40;99.90
69533;DHT22;56729;52.036;5.332;2022-12-29T07:19:21;9.40;99.90
69533;DHT22;56729;52.036;5.332;2022-12-29T07:20:23;9.30;99.90
69533;DHT22;56729;52.036;5.332;2022-12-29T07:21:28;9.30;99.90
69533;DHT22;56729;52.036;5.332;2022-12-29T07:22:30;9.30;99.90
69533;DHT22;56729;52.036;5.332;2022-12-29T07:23:31;9.20;99.90
69533;DHT22;56729;52.036;5.332;2022-12-29T07:24:34;9.20;99.90
69533;DHT22;56729;52.036;5.332;2022-12-29T07:25:35;9.20;99.90
69533;DHT22;56729;52.036;5.332;2022-12-29T07:26:37;9.10;99.90
69533;DHT22;56729;52.036;5.332;2022-12-29T07:27:39;9.10;99.90
69533;DHT22;56729;52.036;5.332;2022-12-29T07:28:41;9.10;99.90
69533;DHT22;56729;52.036;5.332;2022-12-29T07:29:43;9.10;99.90
69533;DHT22;56729;52.036;5.332;2022-12-29T07:30:46;9.00;99.90
69533;DHT22;56729;52.036;5.332;2022-12-29T07:31:47;9.00;99.90
69533;DHT22;56729;52.036;5.332;2022-12-29T07:32:50;9.00;99.90